Osaka, Japan
Current Conditions -  °F | °C
As of 11:00 AM on Tuesday 21 Oct 2014 (Local Time) from RJOO Reporting Station
Broken Clouds Broken Clouds  
Wind Chill: 73°   Ceiling: Unl
Heat Index: 73°   Visibility: 6mi
Dew Point: 63°   Wind: 2mph
Humidity: 69%   Direction: NA
Pressure: 30.03"   Gusts: NA
Location:  34.68°N, 135.5°E
Report Text: RJOO 210200Z VRB02KT 9999 FEW015 SCT150 BKN/// 23/17 Q1017
Loading
Personal Weather Stations






























Interactive Weather Map
Tropical Storm Tracking
New forecast layout! Learn more

10-Day Weather Forecast

Advertisements
Track Severe Weather on mobile